sensor_id;sensor_type;location;lat;lon;timestamp;P1;durP1;ratioP1;P2;durP2;ratioP2
62071;SDS011;48031;48.542;13.232;2023-04-01T00:02:34;3.35;;;1.35;;
62071;SDS011;48031;48.542;13.232;2023-04-01T00:06:37;1.40;;;1.00;;
62071;SDS011;48031;48.542;13.232;2023-04-01T00:10:38;1.05;;;0.88;;
62071;SDS011;48031;48.542;13.232;2023-04-01T00:14:40;1.25;;;1.00;;
62071;SDS011;48031;48.542;13.232;2023-04-01T00:18:42;2.30;;;1.00;;
62071;SDS011;48031;48.542;13.232;2023-04-01T00:22:44;0.88;;;0.80;;
62071;SDS011;48031;48.542;13.232;2023-04-01T00:26:47;1.52;;;0.90;;
62071;SDS011;48031;48.542;13.232;2023-04-01T00:30:49;1.23;;;0.98;;
62071;SDS011;48031;48.542;13.232;2023-04-01T00:34:51;3.25;;;0.95;;
62071;SDS011;48031;48.542;13.232;2023-04-01T00:38:53;1.40;;;1.00;;
62071;SDS011;48031;48.542;13.232;2023-04-01T00:42:55;1.67;;;0.80;;
62071;SDS011;48031;48.542;13.232;2023-04-01T00:46:57;0.85;;;0.80;;
62071;SDS011;48031;48.542;13.232;2023-04-01T00:51:04;1.85;;;0.90;;
62071;SDS011;48031;48.542;13.232;2023-04-01T00:55:12;0.70;;;0.70;;
62071;SDS011;48031;48.542;13.232;2023-04-01T00:59:19;1.05;;;0.88;;
62071;SDS011;48031;48.542;13.232;2023-04-01T01:03:25;1.75;;;1.00;;
62071;SDS011;48031;48.542;13.232;2023-04-01T01:16:21;0.93;;;0.75;;
62071;SDS011;48031;48.542;13.232;2023-04-01T01:38:26;0.95;;;0.82;;
62071;SDS011;48031;48.542;13.232;2023-04-01T01:42:38;1.20;;;0.80;;
62071;SDS011;48031;48.542;13.232;2023-04-01T01:46:44;0.85;;;0.70;;
62071;SDS011;48031;48.542;13.232;2023-04-01T01:50:47;0.70;;;0.70;;
62071;SDS011;48031;48.542;13.232;2023-04-01T01:54:51;0.77;;;0.70;;
62071;SDS011;48031;48.542;13.232;2023-04-01T01:59:06;1.42;;;0.80;;
62071;SDS011;48031;48.542;13.232;2023-04-01T02:03:12;1.60;;;0.90;;
62071;SDS011;48031;48.542;13.232;2023-04-01T02:07:18;2.15;;;0.85;;
62071;SDS011;48031;48.542;13.232;2023-04-01T02:11:31;0.70;;;0.70;;
62071;SDS011;48031;48.542;13.232;2023-04-01T02:15:37;0.60;;;0.60;;
62071;SDS011;48031;48.542;13.232;2023-04-01T02:19:50;1.05;;;0.80;;
62071;SDS011;48031;48.542;13.232;2023-04-01T02:24:00;0.80;;;0.80;;
62071;SDS011;48031;48.542;13.232;2023-04-01T02:28:07;0.70;;;0.70;;
62071;SDS011;48031;48.542;13.232;2023-04-01T02:32:12;3.47;;;0.80;;
62071;SDS011;48031;48.542;13.232;2023-04-01T02:36:15;0.70;;;0.70;;
62071;SDS011;48031;48.542;13.232;2023-04-01T02:40:18;0.85;;;0.82;;
62071;SDS011;48031;48.542;13.232;2023-04-01T02:44:20;1.33;;;0.70;;
62071;SDS011;48031;48.542;13.232;2023-04-01T02:48:22;1.35;;;0.80;;
62071;SDS011;48031;48.542;13.232;2023-04-01T02:52:24;1.23;;;0.80;;
62071;SDS011;48031;48.542;13.232;2023-04-01T02:56:27;1.42;;;0.80;;
62071;SDS011;48031;48.542;13.232;2023-04-01T03:00:29;1.30;;;0.70;;
62071;SDS011;48031;48.542;13.232;2023-04-01T03:04:31;0.60;;;0.60;;
62071;SDS011;48031;48.542;13.232;2023-04-01T03:08:33;1.88;;;0.93;;
62071;SDS011;48031;48.542;13.232;2023-04-01T03:12:35;1.08;;;0.80;;
62071;SDS011;48031;48.542;13.232;2023-04-01T03:16:37;1.48;;;0.80;;
62071;SDS011;48031;48.542;13.232;2023-04-01T03:20:39;1.95;;;0.70;;
62071;SDS011;48031;48.542;13.232;2023-04-01T03:24:41;2.15;;;0.93;;
62071;SDS011;48031;48.542;13.232;2023-04-01T03:28:43;1.92;;;0.88;;
62071;SDS011;48031;48.542;13.232;2023-04-01T03:32:46;2.45;;;0.90;;
62071;SDS011;48031;48.542;13.232;2023-04-01T03:36:48;1.77;;;0.93;;
62071;SDS011;48031;48.542;13.232;2023-04-01T03:40:50;2.80;;;0.80;;
62071;SDS011;48031;48.542;13.232;2023-04-01T03:44:52;0.70;;;0.70;;
62071;SDS011;48031;48.542;13.232;2023-04-01T03:48:54;1.30;;;0.90;;
62071;SDS011;48031;48.542;13.232;2023-04-01T03:52:57;1.00;;;0.80;;
62071;SDS011;48031;48.542;13.232;2023-04-01T03:56:59;0.93;;;0.82;;
62071;SDS011;48031;48.542;13.232;2023-04-01T04:01:02;1.70;;;0.70;;
62071;SDS011;48031;48.542;13.232;2023-04-01T04:05:05;1.42;;;0.80;;
62071;SDS011;48031;48.542;13.232;2023-04-01T04:09:08;0.70;;;0.70;;
62071;SDS011;48031;48.542;13.232;2023-04-01T04:13:11;0.80;;;0.80;;
62071;SDS011;48031;48.542;13.232;2023-04-01T04:17:19;0.70;;;0.70;;
62071;SDS011;48031;48.542;13.232;2023-04-01T04:21:21;1.85;;;0.80;;
62071;SDS011;48031;48.542;13.232;2023-04-01T04:25:23;0.80;;;0.80;;
62071;SDS011;48031;48.542;13.232;2023-04-01T04:29:26;2.75;;;0.80;;
62071;SDS011;48031;48.542;13.232;2023-04-01T04:33:28;1.55;;;0.90;;
62071;SDS011;48031;48.542;13.232;2023-04-01T04:37:30;0.85;;;0.80;;
62071;SDS011;48031;48.542;13.232;2023-04-01T04:41:32;0.63;;;0.63;;
62071;SDS011;48031;48.542;13.232;2023-04-01T04:45:37;1.17;;;0.90;;
62071;SDS011;48031;48.542;13.232;2023-04-01T04:49:40;1.52;;;0.70;;
62071;SDS011;48031;48.542;13.232;2023-04-01T04:53:44;0.88;;;0.77;;
62071;SDS011;48031;48.542;13.232;2023-04-01T04:57:46;1.00;;;0.90;;
62071;SDS011;48031;48.542;13.232;2023-04-01T05:01:48;1.65;;;0.90;;
62071;SDS011;48031;48.542;13.232;2023-04-01T05:05:51;0.70;;;0.70;;
62071;SDS011;48031;48.542;13.232;2023-04-01T05:09:54;1.48;;;0.82;;
62071;SDS011;48031;48.542;13.232;2023-04-01T05:13:56;2.22;;;1.00;;
62071;SDS011;48031;48.542;13.232;2023-04-01T05:17:58;1.05;;;1.00;;
62071;SDS011;48031;48.542;13.232;2023-04-01T05:22:00;0.93;;;0.80;;
62071;SDS011;48031;48.542;13.232;2023-04-01T05:26:04;0.80;;;0.80;;
62071;SDS011;48031;48.542;13.232;2023-04-01T05:30:11;0.70;;;0.70;;
62071;SDS011;48031;48.542;13.232;2023-04-01T05:34:18;0.70;;;0.70;;
62071;SDS011;48031;48.542;13.232;2023-04-01T05:38:20;0.98;;;0.80;;
62071;SDS011;48031;48.542;13.232;2023-04-01T05:42:21;0.70;;;0.70;;
62071;SDS011;48031;48.542;13.232;2023-04-01T05:46:23;0.73;;;0.73;;
62071;SDS011;48031;48.542;13.232;2023-04-01T05:50:45;0.70;;;0.70;;
62071;SDS011;48031;48.542;13.232;2023-04-01T05:54:47;0.70;;;0.70;;
62071;SDS011;48031;48.542;13.232;2023-04-01T05:58:53;0.90;;;0.90;;
62071;SDS011;48031;48.542;13.232;2023-04-01T06:03:00;0.93;;;0.80;;
62071;SDS011;48031;48.542;13.232;2023-04-01T06:07:05;0.85;;;0.70;;
62071;SDS011;48031;48.542;13.232;2023-04-01T06:15:36;1.00;;;0.75;;
62071;SDS011;48031;48.542;13.232;2023-04-01T06:20:11;0.75;;;0.70;;
62071;SDS011;48031;48.542;13.232;2023-04-01T06:54:52;0.70;;;0.70;;
62071;SDS011;48031;48.542;13.232;2023-04-01T06:59:34;0.80;;;0.80;;
62071;SDS011;48031;48.542;13.232;2023-04-01T07:03:43;1.70;;;0.90;;
62071;SDS011;48031;48.542;13.232;2023-04-01T07:07:52;1.55;;;1.05;;
62071;SDS011;48031;48.542;13.232;2023-04-01T07:12:00;1.02;;;0.80;;
62071;SDS011;48031;48.542;13.232;2023-04-01T07:16:43;1.65;;;0.80;;
62071;SDS011;48031;48.542;13.232;2023-04-01T07:20:50;1.58;;;0.80;;
62071;SDS011;48031;48.542;13.232;2023-04-01T07:24:54;0.90;;;0.90;;
62071;SDS011;48031;48.542;13.232;2023-04-01T07:28:59;0.80;;;0.80;;
62071;SDS011;48031;48.542;13.232;2023-04-01T07:33:19;0.90;;;0.90;;
62071;SDS011;48031;48.542;13.232;2023-04-01T07:37:51;0.80;;;0.80;;
62071;SDS011;48031;48.542;13.232;2023-04-01T07:46:20;1.80;;;1.00;;
62071;SDS011;48031;48.542;13.232;2023-04-01T07:55:03;1.13;;;1.10;;
62071;SDS011;48031;48.542;13.232;2023-04-01T08:08:19;0.70;;;0.70;;
62071;SDS011;48031;48.542;13.232;2023-04-01T08:13:15;1.92;;;0.90;;
62071;SDS011;48031;48.542;13.232;2023-04-01T08:21:55;2.50;;;1.02;;
62071;SDS011;48031;48.542;13.232;2023-04-01T08:34:44;1.02;;;0.80;;
62071;SDS011;48031;48.542;13.232;2023-04-01T08:39:02;1.13;;;1.00;;
62071;SDS011;48031;48.542;13.232;2023-04-01T08:52:10;0.70;;;0.70;;
62071;SDS011;48031;48.542;13.232;2023-04-01T08:56:26;0.70;;;0.70;;
62071;SDS011;48031;48.542;13.232;2023-04-01T09:00:41;1.05;;;0.60;;
62071;SDS011;48031;48.542;13.232;2023-04-01T09:05:25;0.95;;;0.80;;
62071;SDS011;48031;48.542;13.232;2023-04-01T09:28:13;1.48;;;0.82;;
62071;SDS011;48031;48.542;13.232;2023-04-01T09:32:25;1.98;;;0.88;;
62071;SDS011;48031;48.542;13.232;2023-04-01T09:41:32;0.80;;;0.80;;
62071;SDS011;48031;48.542;13.232;2023-04-01T10:17:52;0.70;;;0.70;;
62071;SDS011;48031;48.542;13.232;2023-04-01T10:22:04;0.80;;;0.80;;
62071;SDS011;48031;48.542;13.232;2023-04-01T10:31:19;0.70;;;0.70;;
62071;SDS011;48031;48.542;13.232;2023-04-01T10:35:51;0.70;;;0.70;;
62071;SDS011;48031;48.542;13.232;2023-04-01T10:53:34;0.73;;;0.70;;
62071;SDS011;48031;48.542;13.232;2023-04-01T11:02:52;1.20;;;0.70;;
62071;SDS011;48031;48.542;13.232;2023-04-01T11:07:26;1.88;;;0.60;;
62071;SDS011;48031;48.542;13.232;2023-04-01T11:30:05;0.80;;;0.80;;
62071;SDS011;48031;48.542;13.232;2023-04-01T11:43:46;2.90;;;1.42;;
62071;SDS011;48031;48.542;13.232;2023-04-01T11:57:17;0.90;;;0.90;;
62071;SDS011;48031;48.542;13.232;2023-04-01T12:01:55;0.90;;;0.90;;
62071;SDS011;48031;48.542;13.232;2023-04-01T12:06:14;0.80;;;0.80;;
62071;SDS011;48031;48.542;13.232;2023-04-01T12:10:37;0.73;;;0.73;;
62071;SDS011;48031;48.542;13.232;2023-04-01T12:28:14;0.70;;;0.70;;
62071;SDS011;48031;48.542;13.232;2023-04-01T12:32:38;0.68;;;0.68;;
62071;SDS011;48031;48.542;13.232;2023-04-01T12:45:29;0.82;;;0.82;;
62071;SDS011;48031;48.542;13.232;2023-04-01T12:58:31;0.70;;;0.70;;
62071;SDS011;48031;48.542;13.232;2023-04-01T13:02:58;0.80;;;0.80;;
62071;SDS011;48031;48.542;13.232;2023-04-01T13:07:30;0.70;;;0.70;;
62071;SDS011;48031;48.542;13.232;2023-04-01T13:16:16;0.88;;;0.80;;
62071;SDS011;48031;48.542;13.232;2023-04-01T13:24:55;0.70;;;0.70;;
62071;SDS011;48031;48.542;13.232;2023-04-01T13:29:11;0.70;;;0.70;;
62071;SDS011;48031;48.542;13.232;2023-04-01T13:33:30;0.60;;;0.60;;
62071;SDS011;48031;48.542;13.232;2023-04-01T13:37:54;0.70;;;0.70;;
62071;SDS011;48031;48.542;13.232;2023-04-01T13:46:40;0.70;;;0.70;;
62071;SDS011;48031;48.542;13.232;2023-04-01T14:03:47;0.90;;;0.90;;
62071;SDS011;48031;48.542;13.232;2023-04-01T14:21:32;0.90;;;0.90;;
62071;SDS011;48031;48.542;13.232;2023-04-01T14:25:58;1.00;;;1.00;;
62071;SDS011;48031;48.542;13.232;2023-04-01T14:34:47;0.70;;;0.70;;
62071;SDS011;48031;48.542;13.232;2023-04-01T14:43:42;0.80;;;0.80;;
62071;SDS011;48031;48.542;13.232;2023-04-01T14:56:36;0.80;;;0.80;;
62071;SDS011;48031;48.542;13.232;2023-04-01T15:26:11;0.77;;;0.77;;
62071;SDS011;48031;48.542;13.232;2023-04-01T15:38:48;1.08;;;0.98;;
62071;SDS011;48031;48.542;13.232;2023-04-01T15:47:02;1.00;;;1.00;;
62071;SDS011;48031;48.542;13.232;2023-04-01T16:04:28;1.02;;;0.93;;
62071;SDS011;48031;48.542;13.232;2023-04-01T16:25:53;2.03;;;1.30;;
62071;SDS011;48031;48.542;13.232;2023-04-01T16:43:11;1.30;;;1.20;;
62071;SDS011;48031;48.542;13.232;2023-04-01T16:47:27;1.17;;;1.13;;
62071;SDS011;48031;48.542;13.232;2023-04-01T16:51:36;1.48;;;1.20;;
62071;SDS011;48031;48.542;13.232;2023-04-01T17:17:19;1.25;;;1.20;;
62071;SDS011;48031;48.542;13.232;2023-04-01T17:21:25;1.20;;;1.10;;
62071;SDS011;48031;48.542;13.232;2023-04-01T17:25:32;1.20;;;1.10;;
62071;SDS011;48031;48.542;13.232;2023-04-01T17:29:56;1.17;;;1.08;;
62071;SDS011;48031;48.542;13.232;2023-04-01T17:34:21;1.10;;;1.00;;
62071;SDS011;48031;48.542;13.232;2023-04-01T17:47:25;1.30;;;1.20;;
62071;SDS011;48031;48.542;13.232;2023-04-01T17:56:23;1.42;;;1.10;;
62071;SDS011;48031;48.542;13.232;2023-04-01T18:09:09;1.60;;;1.40;;
62071;SDS011;48031;48.542;13.232;2023-04-01T18:17:47;1.58;;;1.20;;
62071;SDS011;48031;48.542;13.232;2023-04-01T18:21:56;1.35;;;1.15;;
62071;SDS011;48031;48.542;13.232;2023-04-01T18:26:33;1.83;;;1.40;;
62071;SDS011;48031;48.542;13.232;2023-04-01T18:30:36;1.20;;;1.13;;
62071;SDS011;48031;48.542;13.232;2023-04-01T18:34:59;1.40;;;1.30;;
62071;SDS011;48031;48.542;13.232;2023-04-01T18:39:21;1.10;;;1.10;;
62071;SDS011;48031;48.542;13.232;2023-04-01T18:43:32;1.27;;;1.17;;
62071;SDS011;48031;48.542;13.232;2023-04-01T18:47:43;1.13;;;1.02;;
62071;SDS011;48031;48.542;13.232;2023-04-01T18:51:54;1.10;;;1.10;;
62071;SDS011;48031;48.542;13.232;2023-04-01T18:56:00;1.95;;;1.27;;
62071;SDS011;48031;48.542;13.232;2023-04-01T19:00:08;1.33;;;1.20;;
62071;SDS011;48031;48.542;13.232;2023-04-01T19:08:40;1.17;;;1.08;;
62071;SDS011;48031;48.542;13.232;2023-04-01T19:12:46;1.42;;;1.20;;
62071;SDS011;48031;48.542;13.232;2023-04-01T19:17:16;1.58;;;1.15;;
62071;SDS011;48031;48.542;13.232;2023-04-01T19:25:54;1.90;;;1.00;;
62071;SDS011;48031;48.542;13.232;2023-04-01T19:47:41;1.15;;;1.05;;
62071;SDS011;48031;48.542;13.232;2023-04-01T19:56:07;1.38;;;1.27;;
62071;SDS011;48031;48.542;13.232;2023-04-01T20:00:26;1.10;;;1.00;;
62071;SDS011;48031;48.542;13.232;2023-04-01T20:08:40;1.88;;;1.48;;
62071;SDS011;48031;48.542;13.232;2023-04-01T20:25:37;1.80;;;1.38;;
62071;SDS011;48031;48.542;13.232;2023-04-01T20:34:35;1.40;;;1.30;;
62071;SDS011;48031;48.542;13.232;2023-04-01T20:52:49;1.33;;;1.23;;
62071;SDS011;48031;48.542;13.232;2023-04-01T20:57:21;1.15;;;1.05;;
62071;SDS011;48031;48.542;13.232;2023-04-01T21:01:47;1.30;;;1.20;;
62071;SDS011;48031;48.542;13.232;2023-04-01T21:06:03;1.30;;;1.20;;
62071;SDS011;48031;48.542;13.232;2023-04-01T21:14:49;2.53;;;1.13;;
62071;SDS011;48031;48.542;13.232;2023-04-01T21:32:41;2.65;;;1.27;;
62071;SDS011;48031;48.542;13.232;2023-04-01T21:36:52;1.00;;;1.00;;
62071;SDS011;48031;48.542;13.232;2023-04-01T21:41:02;1.35;;;1.25;;
62071;SDS011;48031;48.542;13.232;2023-04-01T21:45:22;1.40;;;1.30;;
62071;SDS011;48031;48.542;13.232;2023-04-01T22:07:24;1.00;;;1.00;;
62071;SDS011;48031;48.542;13.232;2023-04-01T22:16:16;1.10;;;1.00;;
62071;SDS011;48031;48.542;13.232;2023-04-01T22:20:32;1.00;;;1.00;;
62071;SDS011;48031;48.542;13.232;2023-04-01T22:24:44;1.35;;;1.05;;
62071;SDS011;48031;48.542;13.232;2023-04-01T22:33:09;1.23;;;1.10;;
62071;SDS011;48031;48.542;13.232;2023-04-01T22:50:16;0.90;;;0.90;;
62071;SDS011;48031;48.542;13.232;2023-04-01T22:54:38;4.10;;;1.20;;
62071;SDS011;48031;48.542;13.232;2023-04-01T22:58:49;1.15;;;1.10;;
62071;SDS011;48031;48.542;13.232;2023-04-01T23:03:17;1.20;;;1.10;;
62071;SDS011;48031;48.542;13.232;2023-04-01T23:12:02;1.00;;;1.00;;
62071;SDS011;48031;48.542;13.232;2023-04-01T23:16:08;1.00;;;0.90;;
62071;SDS011;48031;48.542;13.232;2023-04-01T23:24:33;1.25;;;1.15;;
62071;SDS011;48031;48.542;13.232;2023-04-01T23:28:41;1.10;;;1.00;;
62071;SDS011;48031;48.542;13.232;2023-04-01T23:32:49;1.20;;;1.10;;
62071;SDS011;48031;48.542;13.232;2023-04-01T23:36:53;1.10;;;1.00;;
62071;SDS011;48031;48.542;13.232;2023-04-01T23:40:57;1.02;;;1.00;;
62071;SDS011;48031;48.542;13.232;2023-04-01T23:45:11;1.15;;;0.98;;
62071;SDS011;48031;48.542;13.232;2023-04-01T23:49:22;1.10;;;1.10;;
62071;SDS011;48031;48.542;13.232;2023-04-01T23:53:31;2.10;;;1.20;;
62071;SDS011;48031;48.542;13.232;2023-04-01T23:57:36;1.95;;;1.33;;
